Lakeway's Hourly Summary for Sunday, July 8, 2018
Hour Temp
(f)
RH
(%)
Solar Rad.
(MJ/m2)
Rainfall
(in)
Wind
(mph)
7/8/2018 12:00 AM 74 88 0 0 0
7/8/2018 1:00 AM 73 91 0 0 0
7/8/2018 2:00 AM 73 92 0 0 0
7/8/2018 3:00 AM 73 95 0 0 0
7/8/2018 4:00 AM 72 97 0 0 0
7/8/2018 5:00 AM 71 97 0 0 0.03
7/8/2018 6:00 AM 71 99 0.01 0 0.04
7/8/2018 7:00 AM 72 99 0.15 0 0.17
7/8/2018 8:00 AM 75 96 0.63 0 0.22
7/8/2018 9:00 AM 79 82 1.34 0 0.36
7/8/2018 10:00 AM 81 72 1.49 0 0.36
7/8/2018 11:00 AM 82 69 1.49 0 0.32
7/8/2018 12:00 PM 86 63 2.22 0 0.88
7/8/2018 1:00 PM 87 54 2.22 0 0.88
7/8/2018 2:00 PM 89 51 2.24 0 1.25
7/8/2018 3:00 PM 91 46 2.84 0 1.68
7/8/2018 4:00 PM 91 54 2.84 0 1.99
7/8/2018 5:00 PM 86 63 1.32 0 1.99
7/8/2018 6:00 PM 85 63 0.61 0 1.17
7/8/2018 7:00 PM 85 63 0.6 0 1.87
7/8/2018 8:00 PM 82 66 0.56 0 1.87
7/8/2018 9:00 PM 80 91 0.13 0 0.75
7/8/2018 10:00 PM 76 91 0 0 0.45
7/8/2018 11:00 PM 76 90 0 0 1.1
Data Summary 79 78 20.69 0.00 0.72